createdAt,value
2023-02-14T00:01:36.702Z,14.20
2023-02-14T00:04:09.665Z,12.90
2023-02-14T00:09:17.009Z,14.35
2023-02-14T00:11:49.866Z,13.88
2023-02-14T00:14:41.800Z,13.32
2023-02-14T00:17:14.532Z,14.70
2023-02-14T00:19:47.303Z,13.68
2023-02-14T00:22:20.109Z,13.82
2023-02-14T00:24:52.851Z,14.75
2023-02-14T00:27:25.692Z,13.93
2023-02-14T00:32:38.036Z,13.50
2023-02-14T00:35:11.856Z,14.60
2023-02-14T00:37:47.196Z,15.27
2023-02-14T00:40:19.941Z,13.82
2023-02-14T00:42:52.633Z,13.55
2023-02-14T00:45:30.090Z,13.85
2023-02-14T00:48:02.893Z,12.40
2023-02-14T00:53:08.515Z,13.77
2023-02-14T00:55:41.828Z,14.43
2023-02-14T00:58:14.901Z,13.43
2023-02-14T01:03:21.867Z,13.73
2023-02-14T01:05:54.932Z,15.48
2023-02-14T01:08:29.232Z,13.68
2023-02-14T01:11:08.828Z,13.95
2023-02-14T01:13:42.655Z,14.23
2023-02-14T01:16:19.174Z,13.38
2023-02-14T01:18:53.912Z,14.18
2023-02-14T01:21:28.812Z,14.27
2023-02-14T01:24:03.489Z,13.98
2023-02-14T01:26:36.824Z,14.65
2023-02-14T01:29:09.596Z,13.32
2023-02-14T01:31:44.948Z,13.98
2023-02-14T01:34:17.758Z,15.05
2023-02-14T01:36:52.986Z,13.38
2023-02-14T01:41:58.565Z,15.25
2023-02-14T01:45:00.761Z,13.52
2023-02-14T01:47:39.730Z,14.32
2023-02-14T01:50:18.268Z,13.65
2023-02-14T01:52:55.125Z,15.43
2023-02-14T01:55:33.335Z,13.80
2023-02-14T01:58:10.571Z,14.07
2023-02-14T02:01:02.087Z,14.90
2023-02-14T02:03:42.512Z,14.05
2023-02-14T02:06:18.720Z,15.43
2023-02-14T02:09:01.996Z,16.20
2023-02-14T02:11:36.408Z,13.98
2023-02-14T02:14:14.822Z,13.50
2023-02-14T02:17:09.630Z,13.75
2023-02-14T02:20:21.852Z,14.68
2023-02-14T02:23:29.964Z,13.48
2023-02-14T02:26:44.884Z,14.93
2023-02-14T02:29:50.893Z,14.40
2023-02-14T02:32:45.045Z,13.05
2023-02-14T02:35:32.293Z,14.38
2023-02-14T02:38:22.412Z,14.10
2023-02-14T02:41:04.737Z,13.73
2023-02-14T02:43:50.514Z,13.40
2023-02-14T02:46:44.590Z,14.35
2023-02-14T02:49:55.256Z,13.45
2023-02-14T02:52:59.135Z,13.20
2023-02-14T02:55:52.243Z,13.75
2023-02-14T02:58:30.894Z,13.63
2023-02-14T03:01:10.400Z,13.88
2023-02-14T03:04:05.742Z,12.00
2023-02-14T03:06:38.683Z,13.65
2023-02-14T03:09:36.186Z,11.40
2023-02-14T03:12:24.034Z,13.20
2023-02-14T03:15:03.855Z,13.10
2023-02-14T03:17:44.852Z,12.38
2023-02-14T03:20:23.290Z,13.85
2023-02-14T03:23:05.138Z,12.60
2023-02-14T03:25:47.922Z,11.68
2023-02-14T03:28:32.131Z,13.27
2023-02-14T03:33:50.059Z,12.65
2023-02-14T03:36:27.119Z,12.30
2023-02-14T03:39:07.030Z,15.10
2023-02-14T03:41:48.268Z,12.55
2023-02-14T03:44:28.494Z,13.32
2023-02-14T03:47:05.784Z,12.93
2023-02-14T03:49:44.388Z,13.10
2023-02-14T03:52:19.192Z,13.40
2023-02-14T03:54:55.718Z,12.50
2023-02-14T03:57:33.352Z,12.45
2023-02-14T04:00:09.593Z,12.50
2023-02-14T04:02:49.344Z,12.65
2023-02-14T04:05:26.090Z,13.60
2023-02-14T04:08:01.102Z,12.48
2023-02-14T04:10:34.185Z,12.10
2023-02-14T04:13:07.125Z,11.85
2023-02-14T04:15:43.270Z,14.27
2023-02-14T04:18:36.247Z,13.23
2023-02-14T04:21:09.084Z,12.93
2023-02-14T04:23:42.030Z,12.18
2023-02-14T04:28:47.722Z,10.10
2023-02-14T04:33:54.991Z,13.15
2023-02-14T04:36:28.064Z,12.98
2023-02-14T04:39:01.197Z,11.68
2023-02-14T04:41:34.517Z,11.93
2023-02-14T04:44:07.440Z,12.02
2023-02-14T04:49:14.661Z,12.05
2023-02-14T04:51:48.301Z,11.90
2023-02-14T04:54:21.353Z,13.90
2023-02-14T04:59:27.404Z,11.98
2023-02-14T05:02:01.725Z,13.35
2023-02-14T05:04:34.615Z,12.98
2023-02-14T05:09:40.405Z,11.52
2023-02-14T05:12:14.185Z,11.60
2023-02-14T05:14:46.922Z,11.85
2023-02-14T05:17:21.232Z,13.38
2023-02-14T05:19:54.016Z,12.45
2023-02-14T05:22:26.859Z,12.77
2023-02-14T05:27:32.318Z,11.70
2023-02-14T05:30:05.764Z,13.15
2023-02-14T05:32:40.010Z,11.95
2023-02-14T05:35:12.931Z,12.73
2023-02-14T05:40:18.670Z,13.07
2023-02-14T05:45:26.821Z,12.48
2023-02-14T05:48:00.993Z,12.93
2023-02-14T05:50:33.964Z,12.68
2023-02-14T05:55:39.521Z,14.80
2023-02-14T06:00:45.511Z,15.55
2023-02-14T06:03:20.051Z,15.75
2023-02-14T06:05:52.906Z,15.95
2023-02-14T06:08:25.757Z,16.67
2023-02-14T06:10:58.852Z,15.27
2023-02-14T06:13:31.849Z,14.57
2023-02-14T06:16:05.291Z,14.77
2023-02-14T06:18:39.533Z,16.25
2023-02-14T06:21:12.362Z,14.93
2023-02-14T06:26:17.874Z,14.93
2023-02-14T06:28:54.142Z,14.38
2023-02-14T06:31:27.409Z,14.88
2023-02-14T06:34:01.881Z,14.63
2023-02-14T06:36:35.112Z,15.73
2023-02-14T06:39:08.147Z,14.05
2023-02-14T06:44:13.726Z,15.02
2023-02-14T06:46:46.486Z,15.40
2023-02-14T06:49:20.727Z,15.07
2023-02-14T06:51:53.493Z,13.98
2023-02-14T06:54:26.299Z,15.00
2023-02-14T06:56:59.565Z,15.20
2023-02-14T06:59:32.315Z,15.73
2023-02-14T07:02:05.031Z,14.55
2023-02-14T07:04:39.248Z,14.70
2023-02-14T07:07:11.966Z,15.02
2023-02-14T07:09:44.845Z,16.85
2023-02-14T07:12:17.634Z,14.45
2023-02-14T07:14:50.387Z,15.02
2023-02-14T07:17:23.098Z,15.88
2023-02-14T07:19:57.146Z,15.73
2023-02-14T07:22:30.473Z,16.20
2023-02-14T07:25:03.280Z,16.65
2023-02-14T07:27:36.001Z,17.65
2023-02-14T07:30:11.501Z,17.60
2023-02-14T07:32:44.210Z,18.13
2023-02-14T07:35:18.397Z,17.27
2023-02-14T07:37:51.895Z,16.15
2023-02-14T07:40:25.211Z,15.95
2023-02-14T07:42:59.292Z,17.98
2023-02-14T07:45:32.114Z,17.10
2023-02-14T07:48:05.166Z,17.92
2023-02-14T07:50:39.197Z,17.63
2023-02-14T07:53:12.080Z,17.80
2023-02-14T07:58:17.905Z,13.20
2023-02-14T08:03:23.856Z,18.70
2023-02-14T08:06:01.064Z,18.17
2023-02-14T08:08:33.835Z,19.27
2023-02-14T08:11:06.763Z,24.10
2023-02-14T08:13:39.383Z,20.90
2023-02-14T08:16:12.704Z,20.20
2023-02-14T08:18:45.868Z,19.80
2023-02-14T08:21:19.905Z,20.80
2023-02-14T08:23:52.808Z,20.83
2023-02-14T08:28:58.346Z,21.10
2023-02-14T08:34:09.585Z,23.00
2023-02-14T08:36:44.260Z,27.15
2023-02-14T08:39:16.962Z,25.95
2023-02-14T08:41:49.904Z,25.58
2023-02-14T08:46:55.235Z,26.73
2023-02-14T08:49:28.106Z,26.77
2023-02-14T08:54:34.874Z,28.25
2023-02-14T08:57:07.635Z,28.52
2023-02-14T08:59:40.578Z,27.05
2023-02-14T09:04:46.604Z,29.25
2023-02-14T09:07:21.021Z,30.65
2023-02-14T09:09:54.048Z,29.85
2023-02-14T09:14:59.696Z,35.30
2023-02-14T09:17:32.445Z,31.85
2023-02-14T09:20:06.832Z,33.45
2023-02-14T09:22:41.052Z,33.88
2023-02-14T09:25:13.920Z,40.30
2023-02-14T09:27:46.672Z,43.10
2023-02-14T09:30:19.533Z,46.20
2023-02-14T09:35:25.613Z,54.33
2023-02-14T09:38:01.982Z,57.00
2023-02-14T09:40:35.219Z,58.50
2023-02-14T09:43:18.501Z,60.08
2023-02-14T09:45:56.135Z,59.35
2023-02-14T09:48:35.024Z,58.95
2023-02-14T09:51:13.820Z,64.55
2023-02-14T09:53:52.519Z,65.22
2023-02-14T09:56:42.687Z,64.18
2023-02-14T09:59:28.538Z,67.32
2023-02-14T10:02:21.215Z,64.55
2023-02-14T10:05:02.402Z,67.68
2023-02-14T10:07:45.916Z,67.50
2023-02-14T10:10:26.523Z,68.45
2023-02-14T10:13:06.704Z,63.08
2023-02-14T10:15:42.935Z,69.75
2023-02-14T10:18:21.453Z,68.15
2023-02-14T10:20:58.891Z,65.90
2023-02-14T10:23:36.005Z,72.80
2023-02-14T10:26:14.333Z,70.32
2023-02-14T10:28:49.162Z,72.10
2023-02-14T10:31:23.916Z,71.82
2023-02-14T10:34:05.866Z,71.53
2023-02-14T10:37:14.380Z,71.78
2023-02-14T10:40:06.028Z,73.82
2023-02-14T10:42:57.192Z,75.55
2023-02-14T10:45:40.177Z,77.22
2023-02-14T10:48:21.911Z,74.40
2023-02-14T10:51:00.421Z,71.35
2023-02-14T10:53:45.630Z,70.68
2023-02-14T10:56:23.462Z,74.40
2023-02-14T10:58:58.782Z,69.22
2023-02-14T11:01:31.928Z,73.97
2023-02-14T11:04:08.713Z,78.35
2023-02-14T11:06:41.441Z,79.05
2023-02-14T11:09:14.282Z,78.75
2023-02-14T11:11:51.602Z,70.57
2023-02-14T11:14:30.136Z,80.85
2023-02-14T11:17:28.100Z,69.78
2023-02-14T11:20:03.030Z,70.80
2023-02-14T11:22:36.420Z,72.43
2023-02-14T11:25:20.393Z,70.53
2023-02-14T11:28:03.510Z,72.93
2023-02-14T11:33:23.583Z,75.60
2023-02-14T11:35:57.963Z,70.45
2023-02-14T11:38:34.792Z,71.85
2023-02-14T11:41:10.275Z,69.13
2023-02-14T11:43:45.061Z,63.03
2023-02-14T11:46:29.050Z,63.58
2023-02-14T11:49:04.950Z,65.38
2023-02-14T11:51:43.511Z,67.60
2023-02-14T11:54:30.071Z,69.20
2023-02-14T11:57:07.438Z,67.55
2023-02-14T11:59:43.809Z,73.38
2023-02-14T12:02:32.712Z,79.10
2023-02-14T12:05:15.871Z,74.47
2023-02-14T12:07:51.677Z,68.55
2023-02-14T12:10:27.514Z,73.95
2023-02-14T12:13:02.741Z,74.50
2023-02-14T12:15:38.154Z,73.07
2023-02-14T12:18:46.104Z,71.75
2023-02-14T12:21:39.957Z,69.63
2023-02-14T12:24:21.884Z,66.03
2023-02-14T12:27:03.543Z,70.63
2023-02-14T12:29:40.711Z,65.70
2023-02-14T12:32:21.452Z,62.95
2023-02-14T12:35:01.567Z,69.90
2023-02-14T12:37:50.770Z,71.18
2023-02-14T12:40:37.628Z,63.97
2023-02-14T12:43:31.838Z,68.68
2023-02-14T12:46:22.029Z,65.22
2023-02-14T12:49:11.606Z,69.95
2023-02-14T12:51:51.244Z,62.53
2023-02-14T12:54:41.166Z,77.38
2023-02-14T12:57:27.813Z,74.78
2023-02-14T13:00:12.609Z,70.32
2023-02-14T13:02:59.273Z,78.68
2023-02-14T13:05:46.591Z,71.53
2023-02-14T13:08:31.040Z,69.25
2023-02-14T13:11:13.274Z,74.60
2023-02-14T13:13:57.117Z,75.70
2023-02-14T13:16:38.821Z,72.43
2023-02-14T13:19:24.830Z,66.07
2023-02-14T13:21:59.925Z,68.45
2023-02-14T13:24:40.592Z,73.20
2023-02-14T13:27:22.155Z,70.03
2023-02-14T13:29:59.613Z,75.10
2023-02-14T13:32:39.239Z,69.90
2023-02-14T13:35:17.405Z,69.05
2023-02-14T13:37:55.159Z,74.78
2023-02-14T13:40:30.391Z,75.05
2023-02-14T13:43:07.562Z,74.75
2023-02-14T13:46:04.245Z,81.72
2023-02-14T13:48:39.082Z,76.45
2023-02-14T13:51:12.434Z,71.95
2023-02-14T13:53:46.928Z,73.00
2023-02-14T13:56:35.109Z,75.65
2023-02-14T13:59:27.915Z,73.88
2023-02-14T14:02:32.935Z,75.07
2023-02-14T14:05:47.692Z,77.45
2023-02-14T14:08:47.377Z,75.60
2023-02-14T14:11:53.060Z,77.10
2023-02-14T14:14:39.677Z,77.95
2023-02-14T14:17:26.225Z,73.30
2023-02-14T14:19:59.570Z,79.15
2023-02-14T14:22:32.410Z,75.18
2023-02-14T14:27:45.133Z,67.93
2023-02-14T14:30:23.998Z,71.60
2023-02-14T14:32:56.666Z,77.47
2023-02-14T14:35:29.602Z,78.30
2023-02-14T14:38:02.498Z,79.85
2023-02-14T14:40:38.340Z,81.10
2023-02-14T14:43:14.479Z,79.32
2023-02-14T14:45:52.800Z,82.28
2023-02-14T14:48:30.880Z,77.32
2023-02-14T14:51:06.377Z,78.43
2023-02-14T14:53:45.515Z,70.82
2023-02-14T14:56:22.136Z,78.78
2023-02-14T14:58:55.511Z,75.95
2023-02-14T15:01:36.895Z,71.88
2023-02-14T15:04:12.414Z,74.38
2023-02-14T15:06:45.819Z,68.88
2023-02-14T15:09:23.972Z,73.72
2023-02-14T15:12:17.967Z,73.28
2023-02-14T15:14:54.756Z,72.03
2023-02-14T15:17:33.836Z,72.32
2023-02-14T15:20:10.343Z,72.55
2023-02-14T15:22:45.853Z,72.80
2023-02-14T15:25:22.331Z,72.18
2023-02-14T15:27:55.166Z,66.20
2023-02-14T15:30:33.914Z,64.05
2023-02-14T15:33:09.349Z,64.80
2023-02-14T15:35:43.886Z,65.57
2023-02-14T15:38:17.329Z,63.22
2023-02-14T15:40:51.622Z,62.53
2023-02-14T15:43:30.955Z,61.25
2023-02-14T15:46:17.540Z,56.65
2023-02-14T15:48:53.362Z,57.35
2023-02-14T15:51:29.746Z,57.78
2023-02-14T15:54:05.688Z,58.85
2023-02-14T15:56:44.799Z,61.33
2023-02-14T15:59:20.610Z,57.70
2023-02-14T16:01:56.085Z,59.33
2023-02-14T16:04:33.022Z,55.15
2023-02-14T16:07:17.246Z,57.42
2023-02-14T16:09:51.402Z,54.47
2023-02-14T16:12:31.624Z,53.75
2023-02-14T16:15:18.070Z,54.65
2023-02-14T16:17:50.811Z,55.40
2023-02-14T16:20:30.771Z,55.65
2023-02-14T16:23:23.104Z,56.50
2023-02-14T16:25:58.285Z,56.15
2023-02-14T16:28:31.775Z,57.95
2023-02-14T16:31:10.237Z,56.70
2023-02-14T16:33:43.104Z,60.20
2023-02-14T16:36:23.343Z,57.40
2023-02-14T16:38:57.087Z,56.78
2023-02-14T16:41:31.565Z,59.45
2023-02-14T16:44:04.572Z,60.55
2023-02-14T16:46:37.401Z,64.53
2023-02-14T16:49:10.399Z,63.13
2023-02-14T16:54:20.763Z,62.17
2023-02-14T16:56:56.550Z,59.33
2023-02-14T16:59:29.517Z,63.75
2023-02-14T17:04:35.070Z,64.72
2023-02-14T17:07:09.959Z,67.43
2023-02-14T17:09:49.024Z,66.90
2023-02-14T17:12:30.559Z,70.00
2023-02-14T17:15:09.482Z,67.30
2023-02-14T17:17:43.575Z,67.90
2023-02-14T17:20:20.067Z,68.68
2023-02-14T17:22:55.677Z,72.68
2023-02-14T17:25:31.927Z,70.75
2023-02-14T17:28:05.367Z,74.07
2023-02-14T17:30:38.504Z,75.13
2023-02-14T17:33:11.590Z,70.93
2023-02-14T17:35:44.563Z,74.93
2023-02-14T17:40:53.018Z,77.07
2023-02-14T17:43:28.538Z,78.30
2023-02-14T17:46:05.563Z,77.25
2023-02-14T17:48:38.646Z,77.72
2023-02-14T17:51:11.536Z,76.75
2023-02-14T17:53:45.732Z,74.10
2023-02-14T17:56:21.320Z,77.80
2023-02-14T17:58:55.224Z,73.03
2023-02-14T18:01:31.528Z,72.47
2023-02-14T18:04:05.733Z,75.00
2023-02-14T18:06:38.561Z,73.70
2023-02-14T18:09:12.921Z,76.28
2023-02-14T18:11:46.770Z,71.90
2023-02-14T18:14:19.659Z,68.25
2023-02-14T18:19:25.136Z,68.43
2023-02-14T18:24:35.501Z,64.65
2023-02-14T18:27:08.463Z,70.40
2023-02-14T18:29:41.697Z,70.88
2023-02-14T18:32:14.802Z,71.55
2023-02-14T18:34:47.710Z,68.97
2023-02-14T18:39:54.790Z,67.38
2023-02-14T18:42:27.870Z,68.15
2023-02-14T18:45:00.895Z,69.82
2023-02-14T18:47:33.932Z,71.93
2023-02-14T18:55:14.657Z,65.30
2023-02-14T18:57:47.491Z,67.60
2023-02-14T19:00:21.810Z,67.88
2023-02-14T19:02:54.693Z,70.30
2023-02-14T19:05:28.200Z,70.63
2023-02-14T19:08:01.474Z,72.55
2023-02-14T19:10:38.552Z,67.25
2023-02-14T19:13:11.808Z,68.97
2023-02-14T19:15:44.911Z,72.47
2023-02-14T19:18:18.030Z,70.40
2023-02-14T19:20:51.763Z,72.07
2023-02-14T19:23:24.743Z,72.28
2023-02-14T19:25:59.265Z,71.90
2023-02-14T19:28:36.213Z,70.50
2023-02-14T19:31:10.333Z,72.15
2023-02-14T19:33:45.065Z,75.97
2023-02-14T19:36:20.446Z,71.32
2023-02-14T19:38:54.383Z,66.72
2023-02-14T19:41:31.701Z,68.68
2023-02-14T19:44:07.341Z,67.95
2023-02-14T19:46:42.325Z,67.05
2023-02-14T19:49:17.721Z,69.05
2023-02-14T19:51:52.569Z,67.43
2023-02-14T19:54:25.666Z,69.22
2023-02-14T19:56:59.982Z,65.35
2023-02-14T19:59:32.893Z,66.53
2023-02-14T20:04:38.558Z,66.18
2023-02-14T20:09:44.421Z,64.07
2023-02-14T20:14:54.026Z,65.38
2023-02-14T20:17:26.874Z,68.45
2023-02-14T20:19:59.762Z,65.30
2023-02-14T20:25:06.293Z,68.03
2023-02-14T20:27:40.654Z,73.13
2023-02-14T20:30:14.641Z,70.10
2023-02-14T20:32:47.531Z,70.20
2023-02-14T20:37:54.031Z,73.03
2023-02-14T20:40:26.786Z,72.85
2023-02-14T20:43:01.378Z,76.03
2023-02-14T20:45:34.201Z,71.72
2023-02-14T20:50:41.069Z,76.43
2023-02-14T20:53:14.172Z,75.75
2023-02-14T20:55:50.119Z,72.30
2023-02-14T20:58:24.905Z,75.30
2023-02-14T21:00:58.572Z,71.70
2023-02-14T21:03:32.456Z,71.38
2023-02-14T21:06:07.159Z,71.20
2023-02-14T21:08:40.592Z,71.68
2023-02-14T21:11:15.657Z,67.75
2023-02-14T21:13:51.799Z,69.43
2023-02-14T21:16:25.654Z,69.68
2023-02-14T21:19:00.798Z,68.38
2023-02-14T21:21:36.405Z,68.45
2023-02-14T21:24:11.851Z,69.03
2023-02-14T21:26:45.879Z,63.85
2023-02-14T21:29:20.533Z,65.50
2023-02-14T21:32:04.116Z,62.78
2023-02-14T21:34:37.467Z,62.80
2023-02-14T21:37:11.213Z,60.95
2023-02-14T21:39:45.563Z,58.38
2023-02-14T21:42:21.175Z,60.85
2023-02-14T21:45:12.849Z,58.40
2023-02-14T21:48:06.748Z,60.58
2023-02-14T21:50:39.073Z,59.50
2023-02-14T21:53:12.261Z,57.47
2023-02-14T21:55:46.207Z,56.97
2023-02-14T21:58:19.207Z,55.50
2023-02-14T22:03:26.615Z,56.45
2023-02-14T22:06:05.683Z,52.92
2023-02-14T22:08:38.440Z,54.47
2023-02-14T22:11:13.242Z,54.20
2023-02-14T22:13:48.189Z,55.50
2023-02-14T22:16:24.617Z,52.28
2023-02-14T22:18:57.468Z,52.00
2023-02-14T22:21:33.386Z,49.75
2023-02-14T22:24:06.961Z,50.80
2023-02-14T22:26:40.956Z,49.97
2023-02-14T22:29:14.152Z,50.75
2023-02-14T22:31:50.268Z,50.47
2023-02-14T22:34:23.111Z,49.42
2023-02-14T22:36:55.940Z,49.10
2023-02-14T22:42:05.356Z,48.97
2023-02-14T22:44:38.246Z,47.80
2023-02-14T22:47:12.548Z,45.20
2023-02-14T22:49:45.589Z,45.17
2023-02-14T22:54:53.368Z,43.80
2023-02-14T22:57:26.911Z,45.05
2023-02-14T23:00:00.137Z,45.22
2023-02-14T23:02:34.945Z,46.15
2023-02-14T23:05:08.132Z,45.58
2023-02-14T23:07:41.439Z,44.83
2023-02-14T23:10:14.432Z,41.70
2023-02-14T23:15:54.951Z,40.00
2023-02-14T23:18:46.694Z,41.63
2023-02-14T23:21:37.161Z,40.72
2023-02-14T23:24:09.973Z,43.78
2023-02-14T23:26:42.877Z,45.63
2023-02-14T23:31:48.486Z,41.33
2023-02-14T23:34:25.760Z,43.45
2023-02-14T23:36:58.624Z,42.03
2023-02-14T23:42:06.846Z,40.60
2023-02-14T23:44:39.949Z,39.85
2023-02-14T23:47:14.415Z,39.00
2023-02-14T23:49:48.762Z,40.47
2023-02-14T23:52:21.507Z,39.08
2023-02-14T23:54:54.290Z,37.83
2023-02-14T23:57:27.684Z,40.08
